createdAt,value
2023-05-01T00:01:08.818Z,1013.56
2023-05-01T00:02:08.847Z,1013.55
2023-05-01T00:03:08.946Z,1013.54
2023-05-01T00:04:09.396Z,1013.54
2023-05-01T00:05:09.055Z,1013.50
2023-05-01T00:06:08.963Z,1013.51
2023-05-01T00:07:08.963Z,1013.49
2023-05-01T00:09:09.017Z,1013.45
2023-05-01T00:10:09.060Z,1013.46
2023-05-01T00:11:09.369Z,1013.43
2023-05-01T00:12:09.132Z,1013.44
2023-05-01T00:13:09.125Z,1013.41
2023-05-01T00:14:09.154Z,1013.42
2023-05-01T00:15:09.176Z,1013.42
2023-05-01T00:16:09.267Z,1013.40
2023-05-01T00:17:09.334Z,1013.42
2023-05-01T00:18:09.668Z,1013.36
2023-05-01T00:19:09.293Z,1013.37
2023-05-01T00:20:09.329Z,1013.37
2023-05-01T00:22:09.400Z,1013.34
2023-05-01T00:23:09.424Z,1013.32
2023-05-01T00:24:09.460Z,1013.36
2023-05-01T00:26:09.809Z,1013.32
2023-05-01T00:27:09.526Z,1013.32
2023-05-01T00:28:09.546Z,1013.31
2023-05-01T00:29:09.579Z,1013.29
2023-05-01T00:30:09.616Z,1013.28
2023-05-01T00:31:09.635Z,1013.28
2023-05-01T00:32:09.706Z,1013.29
2023-05-01T00:33:10.012Z,1013.31
2023-05-01T00:36:09.774Z,1013.26
2023-05-01T00:37:09.804Z,1013.24
2023-05-01T00:38:09.835Z,1013.21
2023-05-01T00:39:09.868Z,1013.22
2023-05-01T00:40:10.190Z,1013.21
2023-05-01T00:41:09.925Z,1013.20
2023-05-01T00:42:09.974Z,1013.19
2023-05-01T00:43:09.981Z,1013.23
2023-05-01T00:44:10.012Z,1013.23
2023-05-01T00:46:10.224Z,1013.18
2023-05-01T00:47:10.392Z,1013.13
2023-05-01T00:48:10.261Z,1013.17
2023-05-01T00:49:10.156Z,1013.15
2023-05-01T00:50:10.180Z,1013.13
2023-05-01T00:51:10.209Z,1013.13
2023-05-01T00:52:10.242Z,1013.14
2023-05-01T00:53:10.256Z,1013.10
2023-05-01T00:54:10.537Z,1013.08
2023-05-01T00:55:10.316Z,1013.07
2023-05-01T00:57:10.372Z,1013.05
2023-05-01T00:58:10.454Z,1013.06
2023-05-01T00:59:10.428Z,1012.99
2023-05-01T01:00:10.457Z,1012.98
2023-05-01T01:01:10.814Z,1012.97
2023-05-01T01:02:10.516Z,1012.96
2023-05-01T01:03:10.575Z,1012.94
2023-05-01T01:04:10.713Z,1012.94
2023-05-01T01:05:10.599Z,1012.93
2023-05-01T01:06:10.639Z,1012.91
2023-05-01T01:08:10.979Z,1012.89
2023-05-01T01:11:10.762Z,1012.85
2023-05-01T01:12:10.790Z,1012.84
2023-05-01T01:13:10.822Z,1012.83
2023-05-01T01:14:11.222Z,1012.81
2023-05-01T01:15:11.181Z,1012.81
2023-05-01T01:16:11.003Z,1012.80
2023-05-01T01:17:10.981Z,1012.81
2023-05-01T01:19:11.013Z,1012.78
2023-05-01T01:20:11.049Z,1012.74
2023-05-01T01:21:11.057Z,1012.77
2023-05-01T01:22:11.368Z,1012.74
2023-05-01T01:23:11.096Z,1012.73
2023-05-01T01:24:11.121Z,1012.73
2023-05-01T01:26:11.206Z,1012.74
2023-05-01T01:27:11.256Z,1012.69
2023-05-01T01:28:11.246Z,1012.66
2023-05-01T01:29:11.591Z,1012.66
2023-05-01T01:30:11.319Z,1012.63
2023-05-01T01:31:11.377Z,1012.66
2023-05-01T01:32:11.463Z,1012.68
2023-05-01T01:34:11.410Z,1012.64
2023-05-01T01:35:11.441Z,1012.65
2023-05-01T01:36:11.773Z,1012.65
2023-05-01T01:38:11.533Z,1012.61
2023-05-01T01:39:11.548Z,1012.62
2023-05-01T01:40:11.601Z,1012.60
2023-05-01T01:42:11.633Z,1012.60
2023-05-01T01:43:11.972Z,1012.55
2023-05-01T01:44:11.697Z,1012.52
2023-05-01T01:45:11.720Z,1012.55
2023-05-01T01:46:11.797Z,1012.52
2023-05-01T01:47:11.776Z,1012.51
2023-05-01T01:48:11.909Z,1012.47
2023-05-01T01:49:11.833Z,1012.50
2023-05-01T01:50:12.208Z,1012.46
2023-05-01T01:51:11.892Z,1012.46
2023-05-01T01:52:11.911Z,1012.46
2023-05-01T01:53:11.968Z,1012.46
2023-05-01T01:54:11.978Z,1012.47
2023-05-01T01:55:12.008Z,1012.45
2023-05-01T01:57:12.073Z,1012.37
2023-05-01T01:58:12.410Z,1012.35
2023-05-01T01:59:12.112Z,1012.40
2023-05-01T02:00:12.152Z,1012.42
2023-05-01T02:01:12.201Z,1012.35
2023-05-01T02:02:12.271Z,1012.35
2023-05-01T02:03:12.312Z,1012.35
2023-05-01T02:04:12.291Z,1012.34
2023-05-01T02:05:12.585Z,1012.34
2023-05-01T02:06:12.399Z,1012.33
2023-05-01T02:07:12.342Z,1012.29
2023-05-01T02:08:12.368Z,1012.30
2023-05-01T02:09:12.394Z,1012.27
2023-05-01T02:10:12.447Z,1012.27
2023-05-01T02:11:12.456Z,1012.30
2023-05-01T02:12:12.800Z,1012.29
2023-05-01T02:13:12.518Z,1012.22
2023-05-01T02:14:12.537Z,1012.25
2023-05-01T02:15:12.567Z,1012.27
2023-05-01T02:16:12.752Z,1012.25
2023-05-01T02:17:12.620Z,1012.20
2023-05-01T02:18:12.677Z,1012.19
2023-05-01T02:19:12.989Z,1012.17
2023-05-01T02:20:12.715Z,1012.19
2023-05-01T02:21:12.741Z,1012.18
2023-05-01T02:22:12.768Z,1012.17
2023-05-01T02:23:12.793Z,1012.13
2023-05-01T02:24:12.826Z,1012.14
2023-05-01T02:25:12.857Z,1012.13
2023-05-01T02:26:13.179Z,1012.08
2023-05-01T02:27:12.912Z,1012.10
2023-05-01T02:28:13.042Z,1012.06
2023-05-01T02:29:12.959Z,1012.07
2023-05-01T02:30:12.993Z,1012.02
2023-05-01T02:31:13.053Z,1012.02
2023-05-01T02:32:13.045Z,1012.02
2023-05-01T02:34:13.569Z,1011.98
2023-05-01T02:35:13.132Z,1011.98
2023-05-01T02:36:13.161Z,1011.94
2023-05-01T02:37:13.292Z,1011.98
2023-05-01T02:39:13.250Z,1011.97
2023-05-01T02:40:13.379Z,1011.97
2023-05-01T02:41:13.605Z,1011.93
2023-05-01T02:42:13.349Z,1011.93
2023-05-01T02:43:13.357Z,1011.87
2023-05-01T02:44:13.385Z,1011.92
2023-05-01T02:45:13.510Z,1011.91
2023-05-01T02:46:13.518Z,1011.86
2023-05-01T02:47:13.532Z,1011.88
2023-05-01T02:48:13.872Z,1011.81
2023-05-01T02:49:13.540Z,1011.82
2023-05-01T02:50:13.694Z,1011.80
2023-05-01T02:51:13.580Z,1011.77
2023-05-01T02:52:13.613Z,1011.78
2023-05-01T02:53:13.641Z,1011.76
2023-05-01T02:55:13.801Z,1011.72
2023-05-01T02:56:14.038Z,1011.71
2023-05-01T02:57:13.761Z,1011.69
2023-05-01T02:59:13.846Z,1011.67
2023-05-01T03:00:14.190Z,1011.67
2023-05-01T03:01:13.873Z,1011.66
2023-05-01T03:03:13.932Z,1011.64
2023-05-01T03:05:14.271Z,1011.62
2023-05-01T03:06:14.215Z,1011.59
2023-05-01T03:07:14.080Z,1011.59
2023-05-01T03:08:14.079Z,1011.57
2023-05-01T03:09:14.189Z,1011.57
2023-05-01T03:10:14.206Z,1011.52
2023-05-01T03:11:14.172Z,1011.55
2023-05-01T03:12:14.657Z,1011.55
2023-05-01T03:13:14.198Z,1011.54
2023-05-01T03:14:14.233Z,1011.52
2023-05-01T03:15:14.258Z,1011.51
2023-05-01T03:16:14.327Z,1011.47
2023-05-01T03:17:14.410Z,1011.46
2023-05-01T03:18:14.366Z,1011.45
2023-05-01T03:19:14.678Z,1011.42
2023-05-01T03:20:14.406Z,1011.38
2023-05-01T03:21:14.421Z,1011.42
2023-05-01T03:22:14.472Z,1011.42
2023-05-01T03:23:14.476Z,1011.42
2023-05-01T03:24:14.504Z,1011.39
2023-05-01T03:26:14.565Z,1011.39
2023-05-01T03:27:14.840Z,1011.35
2023-05-01T03:28:14.621Z,1011.36
2023-05-01T03:29:14.652Z,1011.33
2023-05-01T03:30:14.682Z,1011.34
2023-05-01T03:31:14.709Z,1011.32
2023-05-01T03:32:15.023Z,1011.32
2023-05-01T03:33:14.999Z,1011.32
2023-05-01T03:34:15.100Z,1011.32
2023-05-01T03:35:14.906Z,1011.32
2023-05-01T03:36:14.837Z,1011.29
2023-05-01T03:37:14.868Z,1011.27
2023-05-01T03:38:14.923Z,1011.33
2023-05-01T03:39:14.923Z,1011.32
2023-05-01T03:40:14.960Z,1011.26
2023-05-01T03:41:15.280Z,1011.26
2023-05-01T03:42:15.011Z,1011.25
2023-05-01T03:43:15.141Z,1011.25
2023-05-01T03:44:15.063Z,1011.25
2023-05-01T03:45:15.101Z,1011.26
2023-05-01T03:46:15.203Z,1011.25
2023-05-01T03:47:15.150Z,1011.24
2023-05-01T03:48:15.487Z,1011.27
2023-05-01T03:49:15.206Z,1011.25
2023-05-01T03:50:15.243Z,1011.24
2023-05-01T03:52:15.292Z,1011.24
2023-05-01T03:54:15.387Z,1011.24
2023-05-01T03:55:15.673Z,1011.21
2023-05-01T03:56:15.407Z,1011.17
2023-05-01T03:57:15.462Z,1011.17
2023-05-01T03:58:15.476Z,1011.19
2023-05-01T03:59:15.483Z,1011.20
2023-05-01T04:00:15.534Z,1011.18
2023-05-01T04:01:15.595Z,1011.19
2023-05-01T04:02:15.896Z,1011.17
2023-05-01T04:03:15.717Z,1011.17
2023-05-01T04:04:15.718Z,1011.18
2023-05-01T04:05:15.658Z,1011.17
2023-05-01T04:06:15.726Z,1011.14
2023-05-01T04:07:15.817Z,1011.21
2023-05-01T04:08:15.776Z,1011.19
2023-05-01T04:10:15.823Z,1011.20
2023-05-01T04:11:15.865Z,1011.18
2023-05-01T04:12:15.902Z,1011.17
2023-05-01T04:13:15.996Z,1011.17
2023-05-01T04:14:15.908Z,1011.18
2023-05-01T04:15:16.144Z,1011.19
2023-05-01T04:16:16.270Z,1011.15
2023-05-01T04:17:16.298Z,1011.16
2023-05-01T04:18:16.134Z,1011.16
2023-05-01T04:19:16.063Z,1011.19
2023-05-01T04:20:16.081Z,1011.18
2023-05-01T04:21:16.108Z,1011.15
2023-05-01T04:24:16.439Z,1011.16
2023-05-01T04:25:16.232Z,1011.17
2023-05-01T04:26:16.268Z,1011.14
2023-05-01T04:27:17.040Z,1011.14
2023-05-01T04:28:16.298Z,1011.15
2023-05-01T04:30:16.462Z,1011.17
2023-05-01T04:31:16.688Z,1011.15
2023-05-01T04:32:16.417Z,1011.15
2023-05-01T04:34:16.472Z,1011.18
2023-05-01T04:35:16.541Z,1011.16
2023-05-01T04:36:16.551Z,1011.13
2023-05-01T04:37:16.554Z,1011.13
2023-05-01T04:40:16.936Z,1011.16
2023-05-01T04:41:16.966Z,1011.14
2023-05-01T04:42:16.720Z,1011.16
2023-05-01T04:44:16.754Z,1011.15
2023-05-01T04:45:16.802Z,1011.14
2023-05-01T04:46:16.835Z,1011.14
2023-05-01T04:47:17.081Z,1011.15
2023-05-01T04:48:16.898Z,1011.15
2023-05-01T04:49:16.889Z,1011.14
2023-05-01T04:50:16.921Z,1011.12
2023-05-01T04:51:16.949Z,1011.16
2023-05-01T04:52:16.968Z,1011.14
2023-05-01T04:53:16.998Z,1011.16
2023-05-01T04:54:17.332Z,1011.14
2023-05-01T04:56:17.081Z,1011.17
2023-05-01T04:57:17.120Z,1011.18
2023-05-01T04:58:17.167Z,1011.18
2023-05-01T04:59:17.167Z,1011.16
2023-05-01T05:00:17.203Z,1011.15
2023-05-01T05:01:17.556Z,1011.18
2023-05-01T05:02:17.292Z,1011.18
2023-05-01T05:03:17.352Z,1011.16
2023-05-01T05:04:17.311Z,1011.18
2023-05-01T05:05:17.348Z,1011.13
2023-05-01T05:06:17.414Z,1011.19
2023-05-01T05:07:17.434Z,1011.16
2023-05-01T05:09:20.047Z,1011.17
2023-05-01T05:10:17.479Z,1011.13
2023-05-01T05:11:17.507Z,1011.13
2023-05-01T05:12:17.552Z,1011.13
2023-05-01T05:13:17.574Z,1011.14
2023-05-01T05:14:17.717Z,1011.13
2023-05-01T05:15:17.727Z,1011.17
2023-05-01T05:16:17.992Z,1011.18
2023-05-01T05:17:17.694Z,1011.12
2023-05-01T05:18:17.793Z,1011.16
2023-05-01T05:20:17.786Z,1011.16
2023-05-01T05:21:17.794Z,1011.16
2023-05-01T05:22:17.820Z,1011.16
2023-05-01T05:23:18.142Z,1011.18
2023-05-01T05:24:17.870Z,1011.18
2023-05-01T05:25:17.907Z,1011.21
2023-05-01T05:26:17.981Z,1011.17
2023-05-01T05:27:17.962Z,1011.18
2023-05-01T05:28:17.989Z,1011.19
2023-05-01T05:29:18.028Z,1011.21
2023-05-01T05:30:18.546Z,1011.20
2023-05-01T05:31:18.069Z,1011.22
2023-05-01T05:32:18.197Z,1011.17
2023-05-01T05:34:18.155Z,1011.22
2023-05-01T05:35:18.190Z,1011.23
2023-05-01T05:36:18.213Z,1011.21
2023-05-01T05:37:18.536Z,1011.22
2023-05-01T05:38:18.266Z,1011.21
2023-05-01T05:39:18.288Z,1011.24
2023-05-01T05:40:18.321Z,1011.20
2023-05-01T05:41:18.362Z,1011.23
2023-05-01T05:42:18.387Z,1011.20
2023-05-01T05:43:18.402Z,1011.21
2023-05-01T05:45:18.716Z,1011.22
2023-05-01T05:46:18.566Z,1011.19
2023-05-01T05:47:18.521Z,1011.17
2023-05-01T05:48:18.597Z,1011.19
2023-05-01T05:49:18.598Z,1011.15
2023-05-01T05:50:18.629Z,1011.18
2023-05-01T05:51:18.630Z,1011.19
2023-05-01T05:52:18.958Z,1011.16
2023-05-01T05:53:18.696Z,1011.18
2023-05-01T05:54:18.732Z,1011.15
2023-05-01T05:55:18.752Z,1011.14
2023-05-01T05:56:18.795Z,1011.17
2023-05-01T05:57:18.810Z,1011.13
2023-05-01T05:58:18.830Z,1011.14
2023-05-01T05:59:19.270Z,1011.14
2023-05-01T06:00:18.886Z,1011.13
2023-05-01T06:01:18.915Z,1011.15
2023-05-01T06:02:19.099Z,1011.15
2023-05-01T06:03:19.063Z,1011.15
2023-05-01T06:04:19.009Z,1011.16
2023-05-01T06:05:19.083Z,1011.15
2023-05-01T06:06:19.417Z,1011.15
2023-05-01T06:07:19.089Z,1011.16
2023-05-01T06:08:19.126Z,1011.13
2023-05-01T06:10:19.175Z,1011.14
2023-05-01T06:11:19.212Z,1011.15
2023-05-01T06:12:19.229Z,1011.16
2023-05-01T06:14:19.541Z,1011.16
2023-05-01T06:15:19.327Z,1011.17
2023-05-01T06:16:19.462Z,1011.14
2023-05-01T06:17:19.371Z,1011.17
2023-05-01T06:18:19.503Z,1011.15
2023-05-01T06:19:19.435Z,1011.13
2023-05-01T06:20:19.467Z,1011.16
2023-05-01T06:22:19.769Z,1011.16
2023-05-01T06:23:19.546Z,1011.14
2023-05-01T06:24:19.573Z,1011.13
2023-05-01T06:25:19.609Z,1011.19
2023-05-01T06:26:19.633Z,1011.17
2023-05-01T06:27:19.655Z,1011.12
2023-05-01T06:28:19.938Z,1011.13
2023-05-01T06:29:19.716Z,1011.16
2023-05-01T06:30:19.738Z,1011.12
2023-05-01T06:31:19.858Z,1011.16
2023-05-01T06:32:19.795Z,1011.13
2023-05-01T06:33:19.846Z,1011.13
2023-05-01T06:34:19.884Z,1011.11
2023-05-01T06:35:20.139Z,1011.12
2023-05-01T06:36:19.927Z,1011.13
2023-05-01T06:37:20.036Z,1011.11
2023-05-01T06:38:19.961Z,1011.10
2023-05-01T06:39:20.002Z,1011.12
2023-05-01T06:40:20.027Z,1011.11
2023-05-01T06:41:20.056Z,1011.13
2023-05-01T06:42:20.382Z,1011.15
2023-05-01T06:43:20.108Z,1011.13
2023-05-01T06:44:20.137Z,1011.14
2023-05-01T06:45:20.171Z,1011.13
2023-05-01T06:46:20.241Z,1011.12
2023-05-01T06:47:20.258Z,1011.11
2023-05-01T06:48:20.250Z,1011.08
2023-05-01T06:49:20.597Z,1011.10
2023-05-01T06:50:20.339Z,1011.08
2023-05-01T06:51:20.329Z,1011.09
2023-05-01T06:52:20.464Z,1011.09
2023-05-01T06:53:20.390Z,1011.06
2023-05-01T06:54:20.432Z,1011.07
2023-05-01T06:55:20.507Z,1011.07
2023-05-01T06:56:20.778Z,1011.05
2023-05-01T06:57:20.506Z,1011.04
2023-05-01T06:58:23.924Z,1011.04
2023-05-01T06:59:20.558Z,1011.08
2023-05-01T07:00:20.592Z,1011.04
2023-05-01T07:01:20.663Z,1011.04
2023-05-01T07:02:20.751Z,1011.03
2023-05-01T07:03:21.031Z,1011.05
2023-05-01T07:05:20.791Z,1011.07
2023-05-01T07:06:20.818Z,1011.08
2023-05-01T07:07:20.797Z,1011.08
2023-05-01T07:08:20.835Z,1011.06
2023-05-01T07:09:20.856Z,1011.07
2023-05-01T07:10:21.197Z,1011.09
2023-05-01T07:11:21.013Z,1011.08
2023-05-01T07:12:20.949Z,1011.05
2023-05-01T07:13:20.964Z,1011.01
2023-05-01T07:14:20.998Z,1011.05
2023-05-01T07:15:21.023Z,1011.05
2023-05-01T07:16:21.088Z,1011.01
2023-05-01T07:17:21.415Z,1011.06
2023-05-01T07:18:21.110Z,1011.05
2023-05-01T07:19:21.148Z,1011.03
2023-05-01T07:20:21.168Z,1011.05
2023-05-01T07:21:21.205Z,1011.05
2023-05-01T07:22:21.268Z,1011.02
2023-05-01T07:23:21.267Z,1011.03
2023-05-01T07:24:21.576Z,1011.00
2023-05-01T07:25:21.312Z,1011.01
2023-05-01T07:26:21.348Z,1011.00
2023-05-01T07:27:21.377Z,1011.03
2023-05-01T07:28:21.403Z,1011.00
2023-05-01T07:30:21.461Z,1011.01
2023-05-01T07:31:21.886Z,1011.03
2023-05-01T07:33:21.639Z,1011.01
2023-05-01T07:34:21.573Z,1010.97
2023-05-01T07:35:21.702Z,1010.96
2023-05-01T07:36:21.739Z,1010.97
2023-05-01T07:37:21.658Z,1010.99
2023-05-01T07:38:22.139Z,1010.91
2023-05-01T07:40:21.744Z,1010.96
2023-05-01T07:41:21.776Z,1010.96
2023-05-01T07:42:21.812Z,1010.94
2023-05-01T07:43:21.840Z,1010.94
2023-05-01T07:44:21.860Z,1010.96
2023-05-01T07:45:22.190Z,1010.95
2023-05-01T07:46:21.947Z,1010.95
2023-05-01T07:47:21.946Z,1010.93
2023-05-01T07:48:21.984Z,1010.96
2023-05-01T07:50:22.052Z,1010.94
2023-05-01T07:51:22.070Z,1010.95
2023-05-01T07:52:22.390Z,1010.96
2023-05-01T07:53:22.116Z,1010.94
2023-05-01T07:54:22.194Z,1010.97
2023-05-01T07:55:22.186Z,1010.95
2023-05-01T07:56:22.203Z,1010.95
2023-05-01T07:57:22.236Z,1010.98
2023-05-01T07:58:22.572Z,1010.93
2023-05-01T07:59:22.297Z,1010.95
2023-05-01T08:00:22.335Z,1010.95
2023-05-01T08:01:22.358Z,1010.95
2023-05-01T08:02:22.518Z,1010.96
2023-05-01T08:03:22.573Z,1010.95
2023-05-01T08:04:22.956Z,1010.94
2023-05-01T08:05:22.628Z,1010.95
2023-05-01T08:06:22.583Z,1010.93
2023-05-01T08:07:22.542Z,1010.95
2023-05-01T08:08:22.566Z,1010.92
2023-05-01T08:09:22.728Z,1010.91
2023-05-01T08:10:23.128Z,1010.91
2023-05-01T08:11:22.648Z,1010.91
2023-05-01T08:12:22.680Z,1010.99
2023-05-01T08:13:22.716Z,1010.94
2023-05-01T08:14:22.745Z,1010.99
2023-05-01T08:15:22.763Z,1010.98
2023-05-01T08:16:22.912Z,1011.01
2023-05-01T08:17:23.159Z,1010.97
2023-05-01T08:18:22.858Z,1010.99
2023-05-01T08:19:22.884Z,1011.00
2023-05-01T08:20:22.956Z,1011.00
2023-05-01T08:21:22.942Z,1010.97
2023-05-01T08:22:23.003Z,1010.99
2023-05-01T08:23:23.023Z,1010.97
2023-05-01T08:24:23.328Z,1010.95
2023-05-01T08:25:23.073Z,1010.98
2023-05-01T08:26:23.151Z,1010.97
2023-05-01T08:27:23.119Z,1010.99
2023-05-01T08:28:23.149Z,1010.99
2023-05-01T08:29:23.189Z,1010.96
2023-05-01T08:30:23.320Z,1010.95
2023-05-01T08:31:23.574Z,1010.92
2023-05-01T08:32:23.278Z,1010.94
2023-05-01T08:33:23.295Z,1010.96
2023-05-01T08:34:23.333Z,1010.97
2023-05-01T08:35:23.473Z,1010.95
2023-05-01T08:37:23.417Z,1010.95
2023-05-01T08:38:23.742Z,1010.92
2023-05-01T08:39:23.475Z,1010.94
2023-05-01T08:40:23.502Z,1010.89
2023-05-01T08:41:23.540Z,1010.90
2023-05-01T08:42:23.598Z,1010.92
2023-05-01T08:43:23.605Z,1010.89
2023-05-01T08:45:23.659Z,1010.93
2023-05-01T08:46:24.028Z,1010.92
2023-05-01T08:47:23.750Z,1010.89
2023-05-01T08:48:23.740Z,1010.91
2023-05-01T08:49:23.774Z,1010.89
2023-05-01T08:50:23.803Z,1010.92
2023-05-01T08:51:23.873Z,1010.94
2023-05-01T08:52:23.873Z,1010.94
2023-05-01T08:53:24.186Z,1010.92
2023-05-01T08:55:23.952Z,1010.92
2023-05-01T08:56:24.096Z,1010.95
2023-05-01T08:57:24.010Z,1010.93
2023-05-01T09:00:24.121Z,1010.95
2023-05-01T09:01:24.431Z,1010.93
2023-05-01T09:02:24.263Z,1010.94
2023-05-01T09:03:24.295Z,1010.97
2023-05-01T09:04:24.352Z,1010.99
2023-05-01T09:05:24.260Z,1010.99
2023-05-01T09:06:24.321Z,1010.97
2023-05-01T09:07:24.310Z,1011.02
2023-05-01T09:08:24.641Z,1011.05
2023-05-01T09:09:24.372Z,1011.08
2023-05-01T09:10:24.495Z,1011.06
2023-05-01T09:11:24.444Z,1011.03
2023-05-01T09:12:24.459Z,1011.02
2023-05-01T09:13:24.498Z,1011.02
2023-05-01T09:14:24.513Z,1011.00
2023-05-01T09:15:24.849Z,1010.94
2023-05-01T09:16:24.847Z,1010.96
2023-05-01T09:17:24.683Z,1010.95
2023-05-01T09:18:24.632Z,1010.92
2023-05-01T09:19:24.668Z,1010.95
2023-05-01T09:20:24.717Z,1010.93
2023-05-01T09:21:24.735Z,1010.91
2023-05-01T09:22:25.070Z,1010.94
2023-05-01T09:23:24.800Z,1010.96
2023-05-01T09:24:24.868Z,1010.97
2023-05-01T09:25:24.842Z,1010.99
2023-05-01T09:26:24.878Z,1010.99
2023-05-01T09:27:24.923Z,1010.94
2023-05-01T09:28:24.955Z,1010.92
2023-05-01T09:29:25.233Z,1010.95
2023-05-01T09:30:25.001Z,1010.92
2023-05-01T09:31:25.194Z,1010.97
2023-05-01T09:32:25.710Z,1010.99
2023-05-01T09:33:25.249Z,1010.99
2023-05-01T09:34:25.111Z,1010.96
2023-05-01T09:35:25.199Z,1010.98
2023-05-01T09:36:25.474Z,1010.96
2023-05-01T09:37:25.217Z,1010.98
2023-05-01T09:39:25.293Z,1010.95
2023-05-01T09:40:25.302Z,1010.96
2023-05-01T09:41:25.324Z,1010.94
2023-05-01T09:42:25.366Z,1010.93
2023-05-01T09:43:25.718Z,1010.92
2023-05-01T09:44:25.427Z,1010.91
2023-05-01T09:45:25.443Z,1010.88
2023-05-01T09:46:25.515Z,1010.88
2023-05-01T09:47:25.537Z,1010.88
2023-05-01T09:48:25.556Z,1010.85
2023-05-01T09:49:25.586Z,1010.86
2023-05-01T09:50:25.919Z,1010.83
2023-05-01T09:51:25.629Z,1010.86
2023-05-01T09:52:25.664Z,1010.85
2023-05-01T09:53:25.703Z,1010.83
2023-05-01T09:54:25.731Z,1010.84
2023-05-01T09:55:26.089Z,1010.85
2023-05-01T09:56:25.792Z,1010.86
2023-05-01T09:57:26.117Z,1010.82
2023-05-01T09:58:25.841Z,1010.84
2023-05-01T09:59:25.901Z,1010.77
2023-05-01T10:00:25.909Z,1010.80
2023-05-01T10:01:25.951Z,1010.78
2023-05-01T10:02:26.234Z,1010.76
2023-05-01T10:03:26.512Z,1010.73
2023-05-01T10:04:26.620Z,1010.75
2023-05-01T10:05:26.246Z,1010.76
2023-05-01T10:06:26.385Z,1010.72
2023-05-01T10:07:26.427Z,1010.71
2023-05-01T10:08:26.146Z,1010.75
2023-05-01T10:09:26.182Z,1010.79
2023-05-01T10:11:26.241Z,1010.74
2023-05-01T10:12:26.568Z,1010.73
2023-05-01T10:14:26.331Z,1010.69
2023-05-01T10:15:27.071Z,1010.69
2023-05-01T10:16:26.461Z,1010.72
2023-05-01T10:17:26.445Z,1010.73
2023-05-01T10:19:26.792Z,1010.72
2023-05-01T10:20:26.538Z,1010.73
2023-05-01T10:21:26.564Z,1010.73
2023-05-01T10:22:26.577Z,1010.72
2023-05-01T10:23:26.615Z,1010.73
2023-05-01T10:24:26.639Z,1010.74
2023-05-01T10:25:26.766Z,1010.69
2023-05-01T10:26:27.002Z,1010.72
2023-05-01T10:27:26.726Z,1010.69
2023-05-01T10:28:26.755Z,1010.69
2023-05-01T10:29:26.815Z,1010.68
2023-05-01T10:30:26.820Z,1010.69
2023-05-01T10:31:26.860Z,1010.68
2023-05-01T10:32:26.911Z,1010.68
2023-05-01T10:33:27.216Z,1010.65
2023-05-01T10:34:28.414Z,1010.67
2023-05-01T10:35:26.994Z,1010.65
2023-05-01T10:36:27.050Z,1010.70
2023-05-01T10:37:27.076Z,1010.67
2023-05-01T10:38:27.063Z,1010.68
2023-05-01T10:39:27.096Z,1010.63
2023-05-01T10:41:27.456Z,1010.62
2023-05-01T10:42:27.182Z,1010.59
2023-05-01T10:43:27.216Z,1010.61
2023-05-01T10:44:27.359Z,1010.62
2023-05-01T10:45:27.269Z,1010.60
2023-05-01T10:46:27.393Z,1010.57
2023-05-01T10:47:27.340Z,1010.55
2023-05-01T10:49:27.710Z,1010.56
2023-05-01T10:50:27.421Z,1010.53
2023-05-01T10:51:28.040Z,1010.55
2023-05-01T10:52:27.504Z,1010.56
2023-05-01T10:54:27.550Z,1010.56
2023-05-01T10:55:27.617Z,1010.57
2023-05-01T10:56:27.870Z,1010.57
2023-05-01T10:57:27.637Z,1010.51
2023-05-01T10:59:27.713Z,1010.49
2023-05-01T11:00:27.729Z,1010.47
2023-05-01T11:01:27.801Z,1010.48
2023-05-01T11:02:27.912Z,1010.47
2023-05-01T11:03:28.120Z,1010.47
2023-05-01T11:04:27.864Z,1010.50
2023-05-01T11:05:38.225Z,1010.55
2023-05-01T11:06:28.035Z,1010.51
2023-05-01T11:07:27.952Z,1010.51
2023-05-01T11:09:28.026Z,1010.49
2023-05-01T11:10:28.361Z,1010.46
2023-05-01T11:11:28.074Z,1010.45
2023-05-01T11:12:28.109Z,1010.41
2023-05-01T11:13:28.134Z,1010.41
2023-05-01T11:14:28.468Z,1010.45
2023-05-01T11:15:28.302Z,1010.42
2023-05-01T11:16:28.246Z,1010.43
2023-05-01T11:18:28.288Z,1010.42
2023-05-01T11:19:29.379Z,1010.46
2023-05-01T11:20:28.368Z,1010.47
2023-05-01T11:21:28.394Z,1010.50
2023-05-01T11:22:28.415Z,1010.49
2023-05-01T11:23:28.444Z,1010.46
2023-05-01T11:24:28.782Z,1010.48
2023-05-01T11:25:28.529Z,1010.45
2023-05-01T11:26:29.293Z,1010.47
2023-05-01T11:27:28.581Z,1010.48
2023-05-01T11:28:28.593Z,1010.47
2023-05-01T11:29:28.659Z,1010.47
2023-05-01T11:30:28.659Z,1010.47
2023-05-01T11:31:29.075Z,1010.50
2023-05-01T11:32:28.746Z,1010.45
2023-05-01T11:34:28.784Z,1010.46
2023-05-01T11:35:28.813Z,1010.49
2023-05-01T11:36:28.862Z,1010.53
2023-05-01T11:37:28.896Z,1010.49
2023-05-01T11:38:29.205Z,1010.47
2023-05-01T11:39:28.939Z,1010.40
2023-05-01T11:40:28.968Z,1010.42
2023-05-01T11:41:29.024Z,1010.46
2023-05-01T11:42:29.080Z,1010.44
2023-05-01T11:43:29.057Z,1010.47
2023-05-01T11:44:29.086Z,1010.46
2023-05-01T11:45:29.542Z,1010.45
2023-05-01T11:46:29.247Z,1010.46
2023-05-01T11:47:29.252Z,1010.44
2023-05-01T11:48:29.219Z,1010.49
2023-05-01T11:49:29.244Z,1010.49
2023-05-01T11:50:29.280Z,1010.45
2023-05-01T11:51:29.309Z,1010.47
2023-05-01T11:52:29.734Z,1010.47
2023-05-01T11:53:29.365Z,1010.45
2023-05-01T11:54:29.399Z,1010.44
2023-05-01T11:55:29.427Z,1010.38
2023-05-01T11:56:29.459Z,1010.43
2023-05-01T11:57:29.618Z,1010.42
2023-05-01T11:58:29.570Z,1010.43
2023-05-01T11:59:29.862Z,1010.41
2023-05-01T12:00:29.704Z,1010.41
2023-05-01T12:01:29.615Z,1010.42
2023-05-01T12:02:29.708Z,1010.40
2023-05-01T12:03:29.882Z,1010.42
2023-05-01T12:04:32.316Z,1010.40
2023-05-01T12:05:30.038Z,1010.36
2023-05-01T12:06:29.836Z,1010.36
2023-05-01T12:07:29.798Z,1010.36
2023-05-01T12:08:29.833Z,1010.39
2023-05-01T12:09:29.862Z,1010.35
2023-05-01T12:10:29.894Z,1010.35
2023-05-01T12:11:30.221Z,1010.30
2023-05-01T12:12:29.955Z,1010.33
2023-05-01T12:13:30.012Z,1010.28
2023-05-01T12:14:30.016Z,1010.28
2023-05-01T12:15:30.053Z,1010.28
2023-05-01T12:16:30.096Z,1010.27
2023-05-01T12:17:30.513Z,1010.29
2023-05-01T12:18:30.148Z,1010.25
2023-05-01T12:19:30.188Z,1010.24
2023-05-01T12:22:30.378Z,1010.20
2023-05-01T12:23:30.303Z,1010.19
2023-05-01T12:24:30.640Z,1010.22
2023-05-01T12:25:30.357Z,1010.24
2023-05-01T12:26:30.397Z,1010.23
2023-05-01T12:27:30.419Z,1010.22
2023-05-01T12:28:30.521Z,1010.20
2023-05-01T12:29:30.598Z,1010.19
2023-05-01T12:30:30.537Z,1010.19
2023-05-01T12:31:30.848Z,1010.20
2023-05-01T12:32:30.715Z,1010.22
2023-05-01T12:33:30.604Z,1010.23
2023-05-01T12:34:30.653Z,1010.20
2023-05-01T12:35:30.690Z,1010.23
2023-05-01T12:36:30.693Z,1010.21
2023-05-01T12:38:31.061Z,1010.26
2023-05-01T12:39:30.795Z,1010.23
2023-05-01T12:40:30.846Z,1010.18
2023-05-01T12:41:30.853Z,1010.25
2023-05-01T12:42:30.891Z,1010.14
2023-05-01T12:43:30.929Z,1010.12
2023-05-01T12:44:30.949Z,1010.11
2023-05-01T12:45:31.252Z,1010.13
2023-05-01T12:46:31.062Z,1010.07
2023-05-01T12:47:31.096Z,1010.07
2023-05-01T12:48:31.068Z,1010.04
2023-05-01T12:49:31.103Z,1010.01
2023-05-01T12:50:31.140Z,1010.05
2023-05-01T12:51:31.164Z,1010.05
2023-05-01T12:52:31.497Z,1010.01
2023-05-01T12:53:31.226Z,1009.98
2023-05-01T12:54:31.260Z,1009.97
2023-05-01T12:56:31.322Z,1009.99
2023-05-01T12:57:31.360Z,1009.97
2023-05-01T12:58:31.387Z,1009.95
2023-05-01T12:59:31.713Z,1009.88
2023-05-01T13:00:31.449Z,1009.85
2023-05-01T13:01:31.773Z,1009.82
2023-05-01T13:03:31.613Z,1009.84
2023-05-01T13:04:31.693Z,1009.83
2023-05-01T13:05:31.627Z,1009.89
2023-05-01T13:06:31.941Z,1009.86
2023-05-01T13:07:31.676Z,1009.89
2023-05-01T13:08:31.696Z,1009.88
2023-05-01T13:09:31.737Z,1009.85
2023-05-01T13:10:31.766Z,1009.87
2023-05-01T13:11:31.793Z,1009.89
2023-05-01T13:12:31.824Z,1009.95
2023-05-01T13:13:32.152Z,1009.94